createdAt,value
2024-04-09T00:00:20.740Z,162.00
2024-04-09T00:01:22.926Z,157.33
2024-04-09T00:02:24.981Z,136.50
2024-04-09T00:03:29.457Z,131.67
2024-04-09T00:04:31.717Z,135.00
2024-04-09T00:05:47.222Z,134.00
2024-04-09T00:06:53.604Z,125.33
2024-04-09T00:07:57.586Z,129.50
2024-04-09T00:08:59.950Z,131.50
2024-04-09T00:10:06.587Z,130.00
2024-04-09T00:11:22.794Z,126.33
2024-04-09T00:12:27.313Z,122.50
2024-04-09T00:13:31.523Z,123.50
2024-04-09T00:14:37.688Z,122.67
2024-04-09T00:15:40.390Z,118.67
2024-04-09T00:16:47.782Z,115.67
2024-04-09T00:17:55.975Z,119.17
2024-04-09T00:18:59.414Z,121.83
2024-04-09T00:20:09.636Z,144.00
2024-04-09T00:21:12.394Z,143.00
2024-04-09T00:22:14.890Z,139.00
2024-04-09T00:23:16.868Z,129.50
2024-04-09T00:24:19.718Z,125.83
2024-04-09T00:25:26.538Z,124.00
2024-04-09T00:26:31.799Z,119.67
2024-04-09T00:27:35.634Z,121.83
2024-04-09T00:28:37.800Z,138.50
2024-04-09T00:29:40.308Z,149.83
2024-04-09T00:30:46.957Z,143.67
2024-04-09T00:31:49.219Z,134.67
2024-04-09T00:32:52.344Z,133.00
2024-04-09T00:33:57.400Z,141.33
2024-04-09T00:34:59.770Z,143.67
2024-04-09T00:36:15.065Z,136.50
2024-04-09T00:37:20.716Z,134.67
2024-04-09T00:38:23.495Z,133.17
2024-04-09T00:39:29.173Z,132.00
2024-04-09T00:40:31.074Z,132.83
2024-04-09T00:41:33.983Z,132.50
2024-04-09T00:42:38.936Z,131.17
2024-04-09T00:43:42.606Z,135.67
2024-04-09T00:44:45.135Z,139.67
2024-04-09T00:45:51.284Z,139.00
2024-04-09T00:46:53.647Z,136.33
2024-04-09T00:48:00.332Z,132.50
2024-04-09T00:49:02.807Z,131.17
2024-04-09T00:50:11.473Z,131.00
2024-04-09T00:51:18.373Z,131.17
2024-04-09T00:52:20.289Z,132.50
2024-04-09T00:53:23.234Z,134.33
2024-04-09T00:54:25.745Z,139.50
2024-04-09T00:55:29.002Z,142.83
2024-04-09T00:56:33.799Z,147.67
2024-04-09T00:57:43.908Z,153.83
2024-04-09T00:58:47.153Z,161.67
2024-04-09T00:59:50.135Z,159.67
2024-04-09T01:00:53.253Z,160.33
2024-04-09T01:01:56.143Z,170.33
2024-04-09T01:02:59.172Z,168.00
2024-04-09T01:04:01.643Z,165.67
2024-04-09T01:05:05.845Z,171.33
2024-04-09T01:06:09.438Z,175.33
2024-04-09T01:07:11.825Z,174.67
2024-04-09T01:08:14.150Z,171.00
2024-04-09T01:09:16.895Z,169.33
2024-04-09T01:10:19.108Z,171.00
2024-04-09T01:11:21.049Z,184.50
2024-04-09T01:12:23.914Z,193.33
2024-04-09T01:13:25.893Z,190.17
2024-04-09T01:14:29.593Z,184.50
2024-04-09T01:15:32.725Z,180.00
2024-04-09T01:16:35.590Z,176.50
2024-04-09T01:17:38.366Z,171.67
2024-04-09T01:18:40.661Z,157.33
2024-04-09T01:19:42.832Z,150.83
2024-04-09T01:20:51.332Z,140.50
2024-04-09T01:21:54.057Z,134.33
2024-04-09T01:22:56.871Z,118.50
2024-04-09T01:23:59.258Z,100.67
2024-04-09T01:25:02.329Z,105.00
2024-04-09T01:26:04.325Z,115.33
2024-04-09T01:27:13.125Z,119.83
2024-04-09T01:28:15.025Z,122.83
2024-04-09T01:29:17.207Z,122.17
2024-04-09T01:30:19.428Z,124.17
2024-04-09T01:31:23.219Z,127.33
2024-04-09T01:32:27.262Z,132.67
2024-04-09T01:33:29.790Z,139.67
2024-04-09T01:34:36.983Z,148.67
2024-04-09T01:35:39.329Z,154.33
2024-04-09T01:36:43.134Z,153.17
2024-04-09T01:37:45.231Z,150.67
2024-04-09T01:38:48.353Z,146.33
2024-04-09T01:39:50.299Z,139.83
2024-04-09T01:40:52.859Z,138.67
2024-04-09T01:41:55.930Z,140.83
2024-04-09T01:42:58.076Z,143.67
2024-04-09T01:44:00.152Z,152.00
2024-04-09T01:45:02.692Z,156.50
2024-04-09T01:46:10.889Z,156.17
2024-04-09T01:47:14.585Z,161.00
2024-04-09T01:48:17.554Z,160.67
2024-04-09T01:49:20.275Z,159.00
2024-04-09T01:50:22.950Z,162.83
2024-04-09T01:51:25.201Z,183.00
2024-04-09T01:52:27.243Z,174.17
2024-04-09T01:53:29.401Z,169.17
2024-04-09T01:54:31.728Z,167.00
2024-04-09T01:55:40.229Z,165.00
2024-04-09T01:56:43.960Z,164.00
2024-04-09T01:57:48.970Z,163.00
2024-04-09T01:58:52.473Z,162.83
2024-04-09T01:59:54.531Z,162.17
2024-04-09T02:01:11.528Z,163.00
2024-04-09T02:02:16.756Z,162.33
2024-04-09T02:03:19.036Z,157.83
2024-04-09T02:04:21.380Z,138.33
2024-04-09T02:05:23.699Z,129.17
2024-04-09T02:06:28.639Z,122.50
2024-04-09T02:07:30.453Z,115.83
2024-04-09T02:08:34.007Z,107.67
2024-04-09T02:09:38.002Z,116.50
2024-04-09T02:10:42.021Z,124.33
2024-04-09T02:11:44.388Z,121.50
2024-04-09T02:12:46.354Z,119.17
2024-04-09T02:13:49.728Z,114.50
2024-04-09T02:14:51.872Z,95.17
2024-04-09T02:15:55.246Z,69.67
2024-04-09T02:16:57.632Z,56.67
2024-04-09T02:17:59.597Z,56.50
2024-04-09T02:19:03.915Z,55.33
2024-04-09T02:20:10.321Z,82.50
2024-04-09T02:21:16.548Z,141.33
2024-04-09T02:22:18.735Z,165.17
2024-04-09T02:23:20.897Z,166.67
2024-04-09T02:24:24.221Z,158.67
2024-04-09T02:25:26.475Z,158.17
2024-04-09T02:26:31.757Z,173.17
2024-04-09T02:27:34.122Z,173.83
2024-04-09T02:28:36.313Z,192.17
2024-04-09T02:29:38.692Z,189.50
2024-04-09T02:30:40.828Z,177.50
2024-04-09T02:31:43.958Z,166.50
2024-04-09T02:32:45.921Z,167.00
2024-04-09T02:33:50.614Z,164.83
2024-04-09T02:34:53.587Z,163.50
2024-04-09T02:36:04.606Z,148.33
2024-04-09T02:37:06.933Z,127.50
2024-04-09T02:38:10.502Z,122.67
2024-04-09T02:39:14.383Z,114.00
2024-04-09T02:40:17.023Z,102.00
2024-04-09T02:41:20.806Z,98.83
2024-04-09T02:42:23.377Z,96.50
2024-04-09T02:43:28.290Z,108.67
2024-04-09T02:44:32.645Z,96.50
2024-04-09T02:45:35.205Z,88.83
2024-04-09T02:46:39.493Z,98.17
2024-04-09T02:47:41.831Z,103.67
2024-04-09T02:48:44.281Z,105.67
2024-04-09T02:49:47.054Z,124.67
2024-04-09T02:50:54.456Z,153.67
2024-04-09T02:51:57.188Z,149.33
2024-04-09T02:52:59.234Z,161.50
2024-04-09T02:54:01.499Z,161.33
2024-04-09T02:55:06.389Z,167.50
2024-04-09T02:56:11.583Z,178.00
2024-04-09T02:57:13.606Z,169.50
2024-04-09T02:58:16.191Z,169.83
2024-04-09T02:59:18.442Z,165.67
2024-04-09T03:00:20.513Z,161.83
2024-04-09T03:01:22.434Z,156.00
2024-04-09T03:02:25.391Z,146.83
2024-04-09T03:03:27.719Z,126.67
2024-04-09T03:04:34.911Z,124.33
2024-04-09T03:05:36.987Z,130.50
2024-04-09T03:06:39.240Z,132.17
2024-04-09T03:07:47.573Z,133.17
2024-04-09T03:08:51.553Z,135.33
2024-04-09T03:09:53.774Z,131.17
2024-04-09T03:10:56.269Z,115.67
2024-04-09T03:12:02.005Z,108.00
2024-04-09T03:13:04.622Z,111.33
2024-04-09T03:14:10.996Z,116.50
2024-04-09T03:15:15.340Z,120.83
2024-04-09T03:16:22.065Z,152.17
2024-04-09T03:17:24.069Z,178.83
2024-04-09T03:18:25.989Z,193.33
2024-04-09T03:19:29.577Z,190.50
2024-04-09T03:20:31.828Z,185.67
2024-04-09T03:21:34.781Z,182.33
2024-04-09T03:22:40.331Z,178.50
2024-04-09T03:23:42.748Z,180.17
2024-04-09T03:24:56.280Z,194.33
2024-04-09T03:25:58.514Z,203.67
2024-04-09T03:27:00.794Z,188.17
2024-04-09T03:28:05.103Z,183.83
2024-04-09T03:29:07.502Z,176.17
2024-04-09T03:30:10.433Z,173.00
2024-04-09T03:31:12.381Z,172.33
2024-04-09T03:32:14.198Z,172.00
2024-04-09T03:33:16.512Z,171.50
2024-04-09T03:34:18.987Z,168.50
2024-04-09T03:35:21.209Z,150.67
2024-04-09T03:36:23.820Z,142.50
2024-04-09T03:37:25.666Z,136.00
2024-04-09T03:38:27.724Z,140.83
2024-04-09T03:39:30.714Z,139.83
2024-04-09T03:40:32.871Z,135.33
2024-04-09T03:41:35.061Z,132.17
2024-04-09T03:42:37.356Z,160.50
2024-04-09T03:43:41.275Z,297.83
2024-04-09T03:44:43.483Z,295.00
2024-04-09T03:46:04.138Z,318.17
2024-04-09T03:47:06.159Z,318.50
2024-04-09T03:48:09.134Z,359.67
2024-04-09T03:49:12.709Z,339.00
2024-04-09T03:50:15.142Z,296.00
2024-04-09T03:51:17.632Z,291.67
2024-04-09T03:52:19.790Z,277.67
2024-04-09T03:53:21.900Z,271.33
2024-04-09T03:54:23.821Z,259.67
2024-04-09T03:55:26.026Z,233.17
2024-04-09T03:56:30.216Z,228.83
2024-04-09T03:57:32.501Z,234.00
2024-04-09T03:58:38.299Z,236.00
2024-04-09T03:59:40.410Z,230.67
2024-04-09T04:00:42.593Z,213.50
2024-04-09T04:01:44.719Z,219.17
2024-04-09T04:02:49.294Z,210.50
2024-04-09T04:03:51.305Z,218.17
2024-04-09T04:04:53.416Z,219.83
2024-04-09T04:05:57.192Z,220.50
2024-04-09T04:06:59.340Z,216.83
2024-04-09T04:08:01.296Z,207.50
2024-04-09T04:09:03.727Z,199.83
2024-04-09T04:10:07.910Z,194.33
2024-04-09T04:11:13.134Z,196.50
2024-04-09T04:12:15.395Z,194.83
2024-04-09T04:13:24.329Z,197.17
2024-04-09T04:14:26.453Z,198.67
2024-04-09T04:15:28.373Z,199.33
2024-04-09T04:16:33.201Z,195.33
2024-04-09T04:17:36.110Z,194.83
2024-04-09T04:18:41.094Z,195.67
2024-04-09T04:19:44.440Z,200.83
2024-04-09T04:20:54.247Z,209.50
2024-04-09T04:21:56.555Z,234.17
2024-04-09T04:22:59.134Z,237.83
2024-04-09T04:24:01.414Z,239.67
2024-04-09T04:25:03.452Z,245.00
2024-04-09T04:26:08.171Z,254.67
2024-04-09T04:27:12.208Z,250.50
2024-04-09T04:28:14.331Z,238.67
2024-04-09T04:29:17.129Z,206.67
2024-04-09T04:30:19.295Z,198.83
2024-04-09T04:31:23.924Z,188.83
2024-04-09T04:32:27.685Z,163.83
2024-04-09T04:33:30.993Z,149.00
2024-04-09T04:34:33.108Z,150.17
2024-04-09T04:35:35.191Z,148.00
2024-04-09T04:36:37.737Z,130.83
2024-04-09T04:37:39.884Z,139.33
2024-04-09T04:38:42.789Z,150.00
2024-04-09T04:39:44.876Z,159.50
2024-04-09T04:40:47.487Z,167.50
2024-04-09T04:41:50.929Z,168.33
2024-04-09T04:42:53.138Z,164.00
2024-04-09T04:43:56.134Z,152.00
2024-04-09T04:44:58.402Z,156.83
2024-04-09T04:46:00.847Z,159.33
2024-04-09T04:47:03.101Z,180.33
2024-04-09T04:48:05.352Z,210.50
2024-04-09T04:49:07.371Z,221.67
2024-04-09T04:50:11.754Z,233.50
2024-04-09T04:51:13.860Z,228.33
2024-04-09T04:52:20.351Z,212.17
2024-04-09T04:53:22.202Z,206.83
2024-04-09T04:54:24.553Z,205.17
2024-04-09T04:55:27.714Z,201.50
2024-04-09T04:56:30.383Z,194.17
2024-04-09T04:57:33.909Z,192.33
2024-04-09T04:58:36.222Z,197.67
2024-04-09T04:59:38.126Z,212.50
2024-04-09T05:00:40.517Z,220.50
2024-04-09T05:01:43.593Z,215.33
2024-04-09T05:02:46.107Z,214.83
2024-04-09T05:03:49.059Z,215.17
2024-04-09T05:04:53.692Z,216.33
2024-04-09T05:05:55.869Z,222.50
2024-04-09T05:06:58.071Z,224.67
2024-04-09T05:08:00.673Z,221.00
2024-04-09T05:09:03.232Z,218.50
2024-04-09T05:10:14.489Z,219.17
2024-04-09T05:11:17.049Z,244.50
2024-04-09T05:12:19.321Z,255.00
2024-04-09T05:13:21.223Z,252.17
2024-04-09T05:14:23.332Z,241.00
2024-04-09T05:15:25.460Z,236.67
2024-04-09T05:16:31.042Z,232.67
2024-04-09T05:17:33.758Z,226.67
2024-04-09T05:18:36.216Z,227.17
2024-04-09T05:19:38.425Z,244.83
2024-04-09T05:20:41.547Z,245.00
2024-04-09T05:21:44.117Z,241.50
2024-04-09T05:22:47.853Z,266.33
2024-04-09T05:23:52.633Z,304.33
2024-04-09T05:24:56.252Z,296.17
2024-04-09T05:25:59.225Z,289.67
2024-04-09T05:27:02.804Z,272.50
2024-04-09T05:28:05.093Z,261.00
2024-04-09T05:29:07.820Z,224.17
2024-04-09T05:30:12.386Z,222.17
2024-04-09T05:31:14.607Z,206.00
2024-04-09T05:32:16.997Z,203.67
2024-04-09T05:33:19.187Z,213.83
2024-04-09T05:34:21.186Z,211.67
2024-04-09T05:35:26.865Z,212.50
2024-04-09T05:36:31.779Z,209.00
2024-04-09T05:37:35.988Z,200.83
2024-04-09T05:38:38.607Z,205.17
2024-04-09T05:39:42.954Z,205.33
2024-04-09T05:40:45.095Z,198.67
2024-04-09T05:41:48.803Z,185.67
2024-04-09T05:42:51.221Z,184.50
2024-04-09T05:43:53.460Z,184.00
2024-04-09T05:44:55.596Z,185.33
2024-04-09T05:45:58.525Z,184.17
2024-04-09T05:47:03.338Z,185.50
2024-04-09T05:48:06.060Z,170.67
2024-04-09T05:49:08.324Z,150.67
2024-04-09T05:50:11.280Z,138.00
2024-04-09T05:51:14.981Z,126.00
2024-04-09T05:52:17.194Z,131.17
2024-04-09T05:53:19.218Z,137.00
2024-04-09T05:54:25.868Z,140.67
2024-04-09T05:55:27.886Z,140.00
2024-04-09T05:56:31.999Z,144.33
2024-04-09T05:57:37.160Z,135.33
2024-04-09T05:58:39.131Z,133.00
2024-04-09T05:59:41.073Z,136.50
2024-04-09T06:00:47.350Z,135.00
2024-04-09T06:01:52.132Z,128.17
2024-04-09T06:02:54.296Z,119.33
2024-04-09T06:03:56.757Z,125.00
2024-04-09T06:04:59.617Z,125.00
2024-04-09T06:06:01.778Z,112.83
2024-04-09T06:07:04.242Z,97.83
2024-04-09T06:08:06.956Z,89.33
2024-04-09T06:09:09.119Z,82.33
2024-04-09T06:10:14.499Z,85.33
2024-04-09T06:11:17.777Z,93.83
2024-04-09T06:12:20.072Z,94.33
2024-04-09T06:13:21.925Z,92.83
2024-04-09T06:14:24.124Z,98.17
2024-04-09T06:15:26.190Z,101.50
2024-04-09T06:16:28.073Z,200.33
2024-04-09T06:17:37.317Z,292.50
2024-04-09T06:18:39.743Z,307.33
2024-04-09T06:19:43.227Z,264.33
2024-04-09T06:20:46.116Z,195.00
2024-04-09T06:21:49.362Z,150.50
2024-04-09T06:22:52.431Z,118.83
2024-04-09T06:23:54.331Z,111.33
2024-04-09T06:24:56.762Z,113.50
2024-04-09T06:25:59.308Z,118.67
2024-04-09T06:27:01.553Z,124.33
2024-04-09T06:28:04.388Z,129.83
2024-04-09T06:29:06.245Z,125.67
2024-04-09T06:30:10.427Z,130.50
2024-04-09T06:31:12.950Z,131.17
2024-04-09T06:32:15.116Z,126.50
2024-04-09T06:33:17.193Z,127.83
2024-04-09T06:34:19.438Z,121.83
2024-04-09T06:35:22.263Z,115.67
2024-04-09T06:36:27.482Z,115.50
2024-04-09T06:37:30.444Z,119.50
2024-04-09T06:38:32.763Z,123.00
2024-04-09T06:39:34.640Z,145.50
2024-04-09T06:40:36.818Z,154.17
2024-04-09T06:41:38.687Z,150.33
2024-04-09T06:42:40.811Z,144.17
2024-04-09T06:43:42.714Z,143.50
2024-04-09T06:44:46.450Z,152.33
2024-04-09T06:45:49.233Z,158.50
2024-04-09T06:46:52.858Z,163.17
2024-04-09T06:47:56.781Z,172.33
2024-04-09T06:49:01.463Z,178.33
2024-04-09T06:50:04.813Z,162.83
2024-04-09T06:51:06.985Z,146.50
2024-04-09T06:52:09.907Z,143.83
2024-04-09T06:53:12.001Z,146.83
2024-04-09T06:54:15.708Z,147.17
2024-04-09T06:55:19.396Z,144.50
2024-04-09T06:56:21.530Z,140.00
2024-04-09T06:57:23.936Z,138.67
2024-04-09T06:58:29.466Z,140.00
2024-04-09T06:59:33.052Z,149.00
2024-04-09T07:00:35.213Z,153.17
2024-04-09T07:01:37.640Z,145.00
2024-04-09T07:02:41.467Z,132.50
2024-04-09T07:03:44.722Z,133.67
2024-04-09T07:04:47.741Z,133.83
2024-04-09T07:05:49.648Z,128.00
2024-04-09T07:06:53.048Z,122.00
2024-04-09T07:07:55.517Z,118.83
2024-04-09T07:09:03.728Z,121.00
2024-04-09T07:10:09.264Z,123.33
2024-04-09T07:11:11.349Z,122.67
2024-04-09T07:12:13.470Z,123.50
2024-04-09T07:13:16.091Z,124.83
2024-04-09T07:14:18.227Z,124.83
2024-04-09T07:15:26.903Z,124.00
2024-04-09T07:16:29.404Z,123.50
2024-04-09T07:17:31.443Z,124.00
2024-04-09T07:18:37.395Z,129.83
2024-04-09T07:19:42.810Z,133.00
2024-04-09T07:20:47.267Z,132.00
2024-04-09T07:21:49.481Z,125.00
2024-04-09T07:22:51.359Z,111.67
2024-04-09T07:23:53.563Z,85.33
2024-04-09T07:24:55.484Z,86.33
2024-04-09T07:25:57.352Z,98.50
2024-04-09T07:26:59.236Z,95.17
2024-04-09T07:28:01.410Z,87.33
2024-04-09T07:29:06.532Z,90.00
2024-04-09T07:30:09.604Z,92.33
2024-04-09T07:31:11.984Z,94.50
2024-04-09T07:32:16.606Z,96.17
2024-04-09T07:33:19.582Z,99.50
2024-04-09T07:34:28.637Z,100.33
2024-04-09T07:35:33.762Z,105.17
2024-04-09T07:36:36.043Z,108.50
2024-04-09T07:37:38.177Z,122.67
2024-04-09T07:38:41.347Z,129.00
2024-04-09T07:39:44.663Z,122.67
2024-04-09T07:40:46.534Z,118.83
2024-04-09T07:41:49.194Z,118.17
2024-04-09T07:42:51.603Z,117.67
2024-04-09T07:43:55.471Z,124.00
2024-04-09T07:44:58.054Z,122.00
2024-04-09T07:46:00.997Z,114.33
2024-04-09T07:47:04.047Z,113.00
2024-04-09T07:48:10.079Z,112.83
2024-04-09T07:49:13.611Z,109.83
2024-04-09T07:50:16.059Z,108.50
2024-04-09T07:51:17.908Z,109.50
2024-04-09T07:52:20.020Z,110.67
2024-04-09T07:53:22.746Z,111.50
2024-04-09T07:54:26.640Z,112.50
2024-04-09T07:55:29.529Z,114.83
2024-04-09T07:56:31.493Z,115.67
2024-04-09T07:57:39.582Z,119.83
2024-04-09T07:58:45.686Z,124.33
2024-04-09T07:59:48.848Z,124.67
2024-04-09T08:00:51.440Z,121.50
2024-04-09T08:01:53.918Z,119.00
2024-04-09T08:02:58.449Z,118.83
2024-04-09T08:04:01.490Z,115.50
2024-04-09T08:05:08.424Z,112.33
2024-04-09T08:06:14.970Z,120.00
2024-04-09T08:07:17.159Z,129.33
2024-04-09T08:08:19.763Z,132.67
2024-04-09T08:09:22.070Z,129.67
2024-04-09T08:10:25.809Z,128.50
2024-04-09T08:11:27.949Z,127.33
2024-04-09T08:12:30.395Z,118.67
2024-04-09T08:13:32.347Z,108.83
2024-04-09T08:14:34.629Z,121.67
2024-04-09T08:15:37.596Z,124.67
2024-04-09T08:16:39.690Z,116.17
2024-04-09T08:17:42.762Z,100.67
2024-04-09T08:18:45.082Z,102.33
2024-04-09T08:19:47.380Z,104.50
2024-04-09T08:20:49.363Z,103.67
2024-04-09T08:21:52.113Z,105.00
2024-04-09T08:22:54.000Z,95.33
2024-04-09T08:23:56.553Z,78.83
2024-04-09T08:24:58.352Z,64.17
2024-04-09T08:26:00.303Z,55.50
2024-04-09T08:27:04.458Z,42.00
2024-04-09T08:28:09.032Z,34.33
2024-04-09T08:29:15.984Z,37.17
2024-04-09T08:30:18.513Z,47.83
2024-04-09T08:31:32.102Z,58.50
2024-04-09T08:32:37.528Z,45.83
2024-04-09T08:33:39.661Z,36.17
2024-04-09T08:35:01.688Z,41.67
2024-04-09T08:36:24.346Z,52.00
2024-04-09T08:37:46.706Z,47.83
2024-04-09T08:39:09.786Z,29.17
2024-04-09T08:40:31.892Z,22.67
2024-04-09T08:41:53.922Z,25.17
2024-04-09T08:43:19.996Z,31.33
2024-04-09T08:44:45.470Z,34.33
2024-04-09T08:46:11.568Z,29.83
2024-04-09T08:47:34.341Z,25.00
2024-04-09T08:49:00.182Z,84.33
2024-04-09T08:50:06.394Z,59.83
2024-04-09T08:51:11.785Z,56.00
2024-04-09T08:52:17.715Z,52.00
2024-04-09T08:53:23.761Z,41.33
2024-04-09T08:54:29.986Z,40.17
2024-04-09T08:55:35.508Z,41.50
2024-04-09T08:56:37.561Z,51.50
2024-04-09T08:57:39.575Z,56.83
2024-04-09T08:58:41.855Z,48.83
2024-04-09T08:59:44.324Z,40.67
2024-04-09T09:00:46.853Z,40.83
2024-04-09T09:01:49.111Z,42.50
2024-04-09T09:02:52.943Z,40.17
2024-04-09T09:03:55.655Z,32.00
2024-04-09T09:04:57.695Z,30.17
2024-04-09T09:06:05.396Z,27.17
2024-04-09T09:07:14.774Z,22.50
2024-04-09T09:08:16.644Z,35.67
2024-04-09T09:09:27.321Z,74.17
2024-04-09T09:10:49.243Z,81.33
2024-04-09T09:12:11.442Z,61.67
2024-04-09T09:13:39.183Z,54.00
2024-04-09T09:15:16.668Z,83.17
2024-04-09T09:16:39.154Z,45.50
2024-04-09T09:18:04.660Z,18.83
2024-04-09T09:19:26.707Z,22.83
2024-04-09T09:20:48.787Z,23.67
2024-04-09T09:22:13.234Z,23.67
2024-04-09T09:23:38.520Z,29.33
2024-04-09T09:25:00.681Z,39.83
2024-04-09T09:26:22.986Z,39.50
2024-04-09T09:27:45.283Z,37.33
2024-04-09T09:29:07.499Z,25.83
2024-04-09T09:30:29.758Z,25.50
2024-04-09T09:31:52.058Z,26.83
2024-04-09T09:33:17.610Z,27.83
2024-04-09T09:35:16.437Z,30.00
2024-04-09T09:36:38.346Z,38.67
2024-04-09T09:38:02.210Z,51.17
2024-04-09T09:39:26.669Z,51.67
2024-04-09T09:40:51.818Z,45.33
2024-04-09T09:42:17.523Z,37.00
2024-04-09T09:43:41.663Z,33.17
2024-04-09T09:44:45.385Z,33.67
2024-04-09T09:45:50.903Z,38.67
2024-04-09T09:46:54.593Z,41.00
2024-04-09T09:48:19.547Z,41.00
2024-04-09T09:49:23.704Z,42.00
2024-04-09T09:50:47.034Z,41.00
2024-04-09T09:51:51.392Z,38.83
2024-04-09T09:52:54.026Z,34.83
2024-04-09T09:53:57.964Z,33.00
2024-04-09T09:55:03.835Z,31.50
2024-04-09T09:56:09.122Z,31.00
2024-04-09T09:57:17.399Z,30.33
2024-04-09T09:58:24.320Z,22.67
2024-04-09T09:59:39.843Z,18.67
2024-04-09T10:00:44.901Z,17.33
2024-04-09T10:01:50.351Z,16.00
2024-04-09T10:02:54.028Z,15.83
2024-04-09T10:03:56.736Z,14.33
2024-04-09T10:05:02.038Z,15.00
2024-04-09T10:06:19.687Z,15.00
2024-04-09T10:07:23.324Z,15.00
2024-04-09T10:08:29.989Z,16.00
2024-04-09T10:09:49.851Z,16.50
2024-04-09T10:10:52.124Z,17.67
2024-04-09T10:11:53.972Z,19.67
2024-04-09T10:13:09.747Z,20.83
2024-04-09T10:14:22.796Z,24.00
2024-04-09T10:15:28.725Z,25.00
2024-04-09T10:16:32.028Z,25.00
2024-04-09T10:17:52.808Z,24.67
2024-04-09T10:18:58.108Z,22.33
2024-04-09T10:20:02.322Z,22.00
2024-04-09T10:21:06.212Z,22.67
2024-04-09T10:22:08.325Z,23.17
2024-04-09T10:23:13.699Z,24.33
2024-04-09T10:24:16.162Z,24.17
2024-04-09T10:25:23.929Z,20.50
2024-04-09T10:26:28.007Z,17.17
2024-04-09T10:27:30.830Z,17.17
2024-04-09T10:28:36.324Z,18.00
2024-04-09T10:29:57.365Z,18.00
2024-04-09T10:31:19.528Z,18.00
2024-04-09T10:32:27.987Z,20.00
2024-04-09T10:33:35.882Z,33.17
2024-04-09T10:34:38.384Z,34.33
2024-04-09T10:35:43.646Z,34.83
2024-04-09T10:36:48.731Z,33.50
2024-04-09T10:37:52.752Z,36.33
2024-04-09T10:38:58.917Z,35.67
2024-04-09T10:40:00.815Z,31.33
2024-04-09T10:41:03.976Z,21.33
2024-04-09T10:42:07.850Z,20.50
2024-04-09T10:43:10.879Z,21.00
2024-04-09T10:44:12.837Z,22.83
2024-04-09T10:45:16.413Z,28.00
2024-04-09T10:46:18.622Z,34.00
2024-04-09T10:47:20.920Z,33.33
2024-04-09T10:48:24.408Z,31.33
2024-04-09T10:49:26.803Z,30.67
2024-04-09T10:50:30.977Z,28.17
2024-04-09T10:51:33.698Z,27.00
2024-04-09T10:52:37.015Z,27.00
2024-04-09T10:53:39.144Z,26.83
2024-04-09T10:54:41.159Z,25.83
2024-04-09T10:55:45.797Z,27.17
2024-04-09T10:56:59.855Z,30.33
2024-04-09T10:58:02.012Z,30.00
2024-04-09T10:59:17.236Z,30.50
2024-04-09T11:00:24.372Z,33.17
2024-04-09T11:01:27.165Z,30.33
2024-04-09T11:02:32.314Z,25.17
2024-04-09T11:03:34.864Z,23.33
2024-04-09T11:04:40.322Z,22.17
2024-04-09T11:05:43.402Z,22.00
2024-04-09T11:06:45.914Z,22.33
2024-04-09T11:07:50.544Z,24.17
2024-04-09T11:08:52.428Z,24.67
2024-04-09T11:09:58.596Z,22.67
2024-04-09T11:11:02.076Z,21.83
2024-04-09T11:12:06.923Z,21.00
2024-04-09T11:13:09.575Z,20.50
2024-04-09T11:14:13.051Z,18.33
2024-04-09T11:15:16.300Z,17.00
2024-04-09T11:16:19.471Z,17.00
2024-04-09T11:17:23.661Z,16.67
2024-04-09T11:18:26.042Z,15.50
2024-04-09T11:19:29.786Z,15.00
2024-04-09T11:20:32.618Z,15.33
2024-04-09T11:21:36.710Z,18.33
2024-04-09T11:22:42.636Z,29.33
2024-04-09T11:23:44.898Z,30.50
2024-04-09T11:24:47.263Z,27.83
2024-04-09T11:25:52.409Z,22.67
2024-04-09T11:26:54.655Z,21.17
2024-04-09T11:27:58.127Z,24.00
2024-04-09T11:29:00.530Z,24.67
2024-04-09T11:30:03.278Z,22.50
2024-04-09T11:31:06.396Z,18.50
2024-04-09T11:32:10.202Z,14.50
2024-04-09T11:33:16.730Z,10.83
2024-04-09T11:34:31.778Z,7.67
2024-04-09T11:35:33.925Z,6.17
2024-04-09T11:36:37.355Z,6.67
2024-04-09T11:37:57.467Z,7.67
2024-04-09T11:38:59.791Z,8.83
2024-04-09T11:40:03.536Z,10.33
2024-04-09T11:41:10.489Z,13.33
2024-04-09T11:42:12.582Z,14.00
2024-04-09T11:43:14.875Z,14.00
2024-04-09T11:44:24.190Z,14.00
2024-04-09T11:45:28.781Z,14.00
2024-04-09T11:46:30.762Z,14.00
2024-04-09T11:47:33.053Z,14.00
2024-04-09T11:48:36.789Z,14.00
2024-04-09T11:49:39.224Z,14.50
2024-04-09T11:50:41.465Z,16.00
2024-04-09T11:51:43.900Z,18.67
2024-04-09T11:52:46.317Z,19.00
2024-04-09T11:53:49.635Z,19.83
2024-04-09T11:54:51.637Z,20.00
2024-04-09T11:55:56.191Z,20.00
2024-04-09T11:56:58.325Z,19.17
2024-04-09T11:58:00.241Z,19.00
2024-04-09T11:59:02.415Z,20.00
2024-04-09T12:00:05.042Z,21.00
2024-04-09T12:01:11.055Z,20.67
2024-04-09T12:02:13.658Z,19.67
2024-04-09T12:03:16.262Z,17.50
2024-04-09T12:04:20.929Z,15.17
2024-04-09T12:05:27.288Z,13.00
2024-04-09T12:06:29.861Z,12.17
2024-04-09T12:07:32.055Z,13.00
2024-04-09T12:08:34.620Z,13.00
2024-04-09T12:09:37.114Z,12.00
2024-04-09T12:10:39.114Z,11.50
2024-04-09T12:11:41.713Z,11.00
2024-04-09T12:12:44.120Z,11.50
2024-04-09T12:13:46.967Z,12.00
2024-04-09T12:14:49.921Z,12.83
2024-04-09T12:15:52.043Z,13.00
2024-04-09T12:16:54.762Z,12.17
2024-04-09T12:17:57.678Z,12.00
2024-04-09T12:19:00.653Z,11.67
2024-04-09T12:20:05.177Z,11.50
2024-04-09T12:21:08.538Z,13.00
2024-04-09T12:22:14.709Z,15.00
2024-04-09T12:23:21.021Z,16.00
2024-04-09T12:24:28.177Z,16.00
2024-04-09T12:25:30.630Z,16.17
2024-04-09T12:26:32.764Z,17.00
2024-04-09T12:27:34.835Z,17.17
2024-04-09T12:28:36.844Z,18.00
2024-04-09T12:29:39.741Z,18.00
2024-04-09T12:30:42.279Z,18.00
2024-04-09T12:31:44.445Z,18.67
2024-04-09T12:32:46.797Z,22.50
2024-04-09T12:33:50.097Z,29.00
2024-04-09T12:34:53.507Z,32.50
2024-04-09T12:35:55.469Z,30.67
2024-04-09T12:36:57.318Z,30.00
2024-04-09T12:37:59.359Z,30.83
2024-04-09T12:39:05.093Z,35.67
2024-04-09T12:40:08.856Z,38.17
2024-04-09T12:41:12.644Z,39.00
2024-04-09T12:42:15.161Z,39.67
2024-04-09T12:43:17.269Z,37.33
2024-04-09T12:44:20.730Z,30.83
2024-04-09T12:45:23.098Z,22.83
2024-04-09T12:46:25.572Z,19.17
2024-04-09T12:47:27.915Z,20.00
2024-04-09T12:48:29.982Z,22.00
2024-04-09T12:49:38.868Z,25.33
2024-04-09T12:50:47.617Z,27.83
2024-04-09T12:51:50.000Z,28.00
2024-04-09T12:52:51.915Z,28.00
2024-04-09T12:53:55.902Z,28.00
2024-04-09T12:54:59.024Z,28.50
2024-04-09T12:56:01.146Z,30.67
2024-04-09T12:57:03.182Z,33.50
2024-04-09T12:58:05.145Z,36.83
2024-04-09T12:59:07.100Z,44.17
2024-04-09T13:01:33.086Z,72.33
2024-04-09T13:02:35.860Z,73.33
2024-04-09T13:03:39.616Z,84.50
2024-04-09T13:04:42.539Z,67.00
2024-04-09T13:05:44.809Z,51.50
2024-04-09T13:06:47.104Z,27.50
2024-04-09T13:07:51.264Z,27.17
2024-04-09T13:08:54.648Z,31.83
2024-04-09T13:09:59.892Z,28.83
2024-04-09T13:11:02.053Z,21.67
2024-04-09T13:12:04.921Z,17.83
2024-04-09T13:13:08.801Z,18.00
2024-04-09T13:14:12.294Z,18.33
2024-04-09T13:16:44.316Z,19.83
2024-04-09T13:16:50.296Z,20.00
2024-04-09T13:17:55.307Z,21.67
2024-04-09T13:18:57.769Z,21.50
2024-04-09T13:20:00.154Z,21.83
2024-04-09T13:21:03.590Z,22.50
2024-04-09T13:22:06.730Z,23.00
2024-04-09T13:23:08.723Z,23.00
2024-04-09T13:24:11.542Z,23.00
2024-04-09T13:25:13.525Z,23.00
2024-04-09T13:26:15.787Z,24.00
2024-04-09T13:27:17.735Z,24.00
2024-04-09T13:28:19.647Z,23.17
2024-04-09T13:29:21.802Z,21.50
2024-04-09T13:30:25.594Z,21.00
2024-04-09T13:31:28.782Z,21.83
2024-04-09T13:32:31.348Z,22.00
2024-04-09T13:33:33.630Z,22.67
2024-04-09T13:34:35.864Z,34.67
2024-04-09T13:35:37.873Z,38.00
2024-04-09T13:36:40.153Z,36.00
2024-04-09T13:37:44.416Z,34.83
2024-04-09T13:38:49.616Z,33.50
2024-04-09T13:39:51.684Z,32.00
2024-04-09T13:40:55.726Z,31.17